»·PEaware :: N62P KLAS-KLAS

N62P :: KLAS-KLAS

FLIGHT INFORMATION

Flight Status: Arrived
Operator: Privately registered:
United States
More flights under this callsign
Pilot: Ryan B. (8502)
Aircraft: CESSNA 208 CARAVAN
(C208)
More flights by this aircraft type
Origin: KLAS McCarran Intl
United States
Destination: KLAS McCarran Intl
United States
More flights between these airports :: More routes between these airports
Route: +
File this flight plan on PilotEdge
Remarks:
Altitude:
(Current/Filed)
5,000ft
Speed:
(Current/Filed)
0kts
Departed: 11-Sep-17 03:57 PM
Arrived: 11-Sep-17 04:42 PM
Distance/Time
Traveled:
1nm/0:44
Distance/Time
To Go:
Arrived

Flight Plot

Page will automatically refresh every two minutes.


Map Options




Map Legend


Flown Route
Filed Route
Departure Airport
Arrival Airport
Navaid (VOR, NDB)
Fix

Horizontal Profiles

Position Reports

Time Latitude Longitude Heading Altitude Ground
Speed
11-Sep-17 15:57 36.099466 -115.159762 116 2095ft 0kts
11-Sep-17 15:58 36.099466 -115.159762 116 2095ft 0kts
11-Sep-17 15:59 36.099453 -115.159729 115 2095ft 0kts
11-Sep-17 16:00 36.099856 -115.157585 78 2087ft 4kts
11-Sep-17 16:01 36.093609 -115.159895 204 2225ft 92kts
11-Sep-17 16:02 36.072623 -115.153604 111 3821ft 121kts
11-Sep-17 16:03 36.057872 -115.111504 110 4773ft 158kts
11-Sep-17 16:04 36.042371 -115.056785 111 4560ft 170kts
11-Sep-17 16:05 36.023609 -115.003529 111 4602ft 165kts
11-Sep-17 16:06 36.006987 -114.957131 110 5930ft 138kts
11-Sep-17 16:07 35.989387 -114.907274 111 6012ft 168kts
11-Sep-17 16:08 35.970361 -114.853833 111 6013ft 170kts
11-Sep-17 16:09 35.951423 -114.800524 110 6010ft 169kts
11-Sep-17 16:10 35.949333 -114.745061 76 6015ft 166kts
11-Sep-17 16:11 35.959095 -114.689429 75 6011ft 165kts
11-Sep-17 16:12 35.968797 -114.633936 77 6013ft 165kts
11-Sep-17 16:13 35.978702 -114.576463 79 5557ft 174kts
11-Sep-17 16:14 35.988883 -114.517804 75 5046ft 175kts
11-Sep-17 16:15 35.999150 -114.458753 76 4521ft 177kts
11-Sep-17 16:16 36.009602 -114.400415 74 3821ft 167kts
11-Sep-17 16:17 36.013067 -114.353246 94 2946ft 164kts
11-Sep-17 16:18 36.023577 -114.340668 221 2626ft 103kts
11-Sep-17 16:19 36.007164 -114.339784 47 1888ft 86kts
11-Sep-17 16:20 36.021257 -114.333941 103 1491ft 0kts
11-Sep-17 16:21 36.011674 -114.337232 11 1739ft 85kts
11-Sep-17 16:22 36.017989 -114.335595 13 1520ft 79kts
11-Sep-17 16:23 36.021311 -114.333919 281 1491ft 0kts
11-Sep-17 16:24 36.021311 -114.333919 281 1491ft 0kts
11-Sep-17 16:25 36.021311 -114.333919 281 1491ft 0kts
11-Sep-17 16:26 36.021311 -114.333919 281 1491ft 0kts
11-Sep-17 16:27 36.021346 -114.334171 278 1492ft 6kts
11-Sep-17 16:28 36.029536 -114.332590 1 1685ft 93kts
11-Sep-17 16:29 36.031216 -114.361467 256 2890ft 105kts
11-Sep-17 16:30 36.022580 -114.397864 260 4132ft 120kts
11-Sep-17 16:31 36.018470 -114.439429 260 5330ft 123kts
11-Sep-17 16:32 36.014004 -114.483994 260 6011ft 152kts
11-Sep-17 16:33 36.008091 -114.540003 260 6003ft 171kts
11-Sep-17 16:34 36.002002 -114.598727 259 6002ft 173kts
11-Sep-17 16:35 35.998235 -114.657945 268 6001ft 174kts
11-Sep-17 16:36 35.998653 -114.720063 268 5538ft 185kts
11-Sep-17 16:37 35.998523 -114.781096 267 5502ft 172kts
11-Sep-17 16:38 36.005367 -114.838404 293 5538ft 173kts
11-Sep-17 16:39 36.027089 -114.891670 294 5536ft 174kts
11-Sep-17 16:40 36.038460 -114.949310 287 5489ft 176kts
11-Sep-17 16:41 36.055175 -115.009286 285 4794ft 188kts
11-Sep-17 16:42 36.066146 -115.069118 280 4074ft 162kts
11-Sep-17 16:43 36.090513 -115.108442 319 3660ft 130kts
11-Sep-17 16:44 36.104308 -115.137592 274 2943ft 93kts
11-Sep-17 16:45 36.092570 -115.160481 205 2111ft 65kts
11-Sep-17 16:46 36.083415 -115.167072 225 2156ft 20kts
11-Sep-17 16:47 36.081161 -115.170802 211 2170ft 8kts
11-Sep-17 16:48 36.081089 -115.171102 269 2171ft 0kts

Navigation Log

Ident Type
1. KLAS Airport
2. KLAS Airport